Time;durP1;ratioP1;P1;durP2;ratioP2;P2;SDS_P1;SDS_P2;PMS_P1;PMS_P2;Temp;Humidity;BMP_temperature;BMP_pressure;BME280_temperature;BME280_humidity;BME280_pressure;Samples;Min_cycle;Max_cycle;Signal;HPM_P1;HPM_P2
2023/08/09 00:02:02;;;;;;;7.67;3.87;;;17.00;1.00;;;;;;5009888;28;20205;-74
2023/08/09 00:04:27;;;;;;;5.63;3.80;;;17.00;1.00;;;;;;5013396;28;20664;-75
2023/08/09 00:06:53;;;;;;;5.50;4.00;;;17.00;1.00;;;;;;5010400;28;20194;-75
2023/08/09 00:09:20;;;;;;;6.50;3.93;;;17.00;1.00;;;;;;5013052;28;20684;-75
2023/08/09 00:11:46;;;;;;;6.57;4.03;;;17.00;1.00;;;;;;5013293;28;20201;-75
2023/08/09 00:14:12;;;;;;;7.07;4.57;;;17.00;1.00;;;;;;5013310;28;20417;-74
2023/08/09 00:16:37;;;;;;;7.07;3.90;;;17.10;1.00;;;;;;5013199;28;20662;-75
2023/08/09 00:19:03;;;;;;;7.20;4.10;;;17.10;1.00;;;;;;5011716;28;20236;-75
2023/08/09 00:21:29;;;;;;;5.30;3.77;;;17.10;1.00;;;;;;5011299;28;20712;-75
2023/08/09 00:23:55;;;;;;;9.90;3.77;;;17.10;1.00;;;;;;5011711;28;20541;-75
2023/08/09 00:26:20;;;;;;;8.73;4.10;;;17.10;1.00;;;;;;5011180;28;20202;-75
2023/08/09 00:28:46;;;;;;;6.97;4.27;;;17.10;1.00;;;;;;5012904;28;20599;-75
2023/08/09 00:31:12;;;;;;;7.20;4.23;;;17.10;1.00;;;;;;5012431;28;20190;-75
2023/08/09 00:33:37;;;;;;;4.90;4.40;;;17.10;1.00;;;;;;5012755;28;20178;-75
2023/08/09 00:36:03;;;;;;;6.13;4.80;;;17.00;1.00;;;;;;5012610;28;20262;-75
2023/08/09 00:38:29;;;;;;;6.03;3.70;;;17.00;1.00;;;;;;5012073;28;20241;-75
2023/08/09 00:40:55;;;;;;;5.80;4.10;;;16.90;1.00;;;;;;5011399;28;20225;-75
2023/08/09 00:43:20;;;;;;;5.30;4.20;;;16.90;1.00;;;;;;5012211;28;20592;-75
2023/08/09 00:45:47;;;;;;;7.30;4.40;;;17.00;1.00;;;;;;5012301;28;20437;-75
2023/08/09 00:48:13;;;;;;;7.43;4.50;;;17.00;1.00;;;;;;5010699;28;20426;-75
2023/08/09 00:50:39;;;;;;;5.57;4.20;;;16.90;1.00;;;;;;5011591;28;20410;-75
2023/08/09 00:53:05;;;;;;;5.40;4.23;;;17.00;1.00;;;;;;5011703;28;20277;-75
2023/08/09 00:55:31;;;;;;;9.33;4.57;;;17.00;1.00;;;;;;5011876;28;20441;-75
2023/08/09 00:57:56;;;;;;;6.00;3.90;;;17.00;1.00;;;;;;5010297;28;20205;-75
2023/08/09 01:00:22;;;;;;;7.93;3.90;;;17.00;1.00;;;;;;5010522;28;20220;-74
2023/08/09 01:02:48;;;;;;;9.60;4.17;;;16.90;1.00;;;;;;5010689;28;20194;-75
2023/08/09 01:05:14;;;;;;;7.47;4.37;;;16.80;1.00;;;;;;5011859;28;20175;-74
2023/08/09 01:07:53;;;;;;;4.83;3.60;;;16.70;1.00;;;;;;5011186;28;20202;-75
2023/08/09 01:10:43;;;;;;;7.03;4.17;;;16.60;1.00;;;;;;5011521;28;20417;-75
2023/08/09 01:13:09;;;;;;;4.03;3.53;;;16.60;1.00;;;;;;5011903;28;20456;-75
2023/08/09 01:15:38;;;;;;;6.57;4.00;;;16.60;1.00;;;;;;5009370;28;20418;-74
2023/08/09 01:18:05;;;;;;;5.70;4.00;;;16.60;1.00;;;;;;5011450;28;20409;-75
2023/08/09 01:20:32;;;;;;;10.43;4.00;;;16.60;1.00;;;;;;5011336;28;20421;-74
2023/08/09 01:23:16;;;;;;;4.20;3.80;;;16.70;1.00;;;;;;5011627;28;20441;-75
2023/08/09 01:25:43;;;;;;;4.43;3.47;;;16.60;1.00;;;;;;5011644;28;20414;-75
2023/08/09 01:28:09;;;;;;;7.80;4.60;;;16.70;1.00;;;;;;5010107;28;20871;-75
2023/08/09 01:30:35;;;;;;;10.83;4.00;;;16.60;1.00;;;;;;5009689;28;20905;-75
2023/08/09 01:33:01;;;;;;;4.83;3.37;;;16.60;1.00;;;;;;5011381;28;20513;-75
2023/08/09 01:35:34;;;;;;;5.70;3.60;;;16.60;1.00;;;;;;5011060;28;20174;-74
2023/08/09 01:38:05;;;;;;;6.43;3.83;;;16.50;1.00;;;;;;5011133;28;20175;-74
2023/08/09 01:40:32;;;;;;;6.13;3.60;;;16.50;1.00;;;;;;5010945;28;20417;-74
2023/08/09 01:42:59;;;;;;;7.50;4.00;;;16.50;1.00;;;;;;5010967;28;20532;-74
2023/08/09 01:45:25;;;;;;;6.80;3.60;;;16.60;1.00;;;;;;5010783;28;20777;-74
2023/08/09 01:47:51;;;;;;;6.47;4.07;;;16.50;1.00;;;;;;5010915;28;21045;-74
2023/08/09 01:50:20;;;;;;;7.20;3.80;;;16.50;1.00;;;;;;5011190;28;20414;-74
2023/08/09 01:52:46;;;;;;;8.43;4.30;;;16.40;1.00;;;;;;5010975;28;20441;-74
2023/08/09 01:55:17;;;;;;;6.17;4.07;;;16.30;1.00;;;;;;5011227;28;20409;-74
2023/08/09 01:57:44;;;;;;;7.43;4.00;;;16.30;1.00;;;;;;5007455;28;20425;-74
2023/08/09 02:00:10;;;;;;;8.43;4.20;;;16.30;1.00;;;;;;5009899;28;20440;-74
2023/08/09 02:02:37;;;;;;;12.20;4.67;;;16.30;1.00;;;;;;5010490;28;20645;-74
2023/08/09 02:05:03;;;;;;;5.30;3.60;;;16.20;1.00;;;;;;5011050;28;20905;-74
2023/08/09 02:07:29;;;;;;;5.87;4.00;;;16.10;1.00;;;;;;5010633;28;20467;-74
2023/08/09 02:09:54;;;;;;;6.83;3.80;;;16.20;1.00;;;;;;5009207;28;20418;-74
2023/08/09 02:12:20;;;;;;;6.53;4.30;;;16.20;1.00;;;;;;5010300;28;20210;-73
2023/08/09 02:14:45;;;;;;;7.57;4.37;;;16.20;1.00;;;;;;5010935;28;20210;-73
2023/08/09 02:17:10;;;;;;;7.90;4.10;;;16.10;1.00;;;;;;5009530;28;20178;-74
2023/08/09 02:19:36;;;;;;;7.03;4.40;;;16.30;1.00;;;;;;5009303;28;20185;-74
2023/08/09 02:22:02;;;;;;;5.50;4.10;;;16.20;1.00;;;;;;5010739;28;20221;-73
2023/08/09 02:24:28;;;;;;;6.60;4.00;;;16.20;1.00;;;;;;5010607;28;20805;-73
2023/08/09 02:26:53;;;;;;;7.00;4.17;;;16.20;1.00;;;;;;5010530;28;20465;-73
2023/08/09 02:29:20;;;;;;;6.37;3.73;;;16.30;1.00;;;;;;5010610;28;20182;-74
2023/08/09 02:31:46;;;;;;;5.00;3.60;;;16.30;1.00;;;;;;5009114;28;20217;-73
2023/08/09 02:34:11;;;;;;;6.87;4.17;;;16.30;1.00;;;;;;5009391;28;20843;-74
2023/08/09 02:36:37;;;;;;;6.37;4.20;;;16.30;1.00;;;;;;5010138;28;20413;-74
2023/08/09 02:39:05;;;;;;;4.67;3.50;;;16.30;1.00;;;;;;5008977;28;20206;-74
2023/08/09 02:41:30;;;;;;;4.73;4.07;;;16.30;1.00;;;;;;5010145;28;20289;-73
2023/08/09 02:43:56;;;;;;;9.30;4.17;;;16.30;1.00;;;;;;5010749;28;20500;-74
2023/08/09 02:46:22;;;;;;;8.53;4.33;;;16.20;1.00;;;;;;5010151;28;20177;-74
2023/08/09 02:48:47;;;;;;;5.53;4.37;;;16.20;1.00;;;;;;5008596;28;20199;-73
2023/08/09 02:51:13;;;;;;;5.20;3.90;;;16.20;1.00;;;;;;5010669;28;20298;-74
2023/08/09 02:53:58;;;;;;;5.90;4.00;;;16.20;1.00;;;;;;5010069;28;20182;-74
2023/08/09 02:56:23;;;;;;;5.80;3.97;;;16.20;1.00;;;;;;5010094;28;20254;-74
2023/08/09 02:58:49;;;;;;;6.63;4.03;;;16.20;1.00;;;;;;5009962;28;20509;-73
2023/08/09 03:01:14;;;;;;;8.90;4.30;;;16.20;1.00;;;;;;5010213;28;20194;-74
2023/08/09 03:03:40;;;;;;;4.90;3.97;;;16.20;1.00;;;;;;5010061;28;20182;-73
2023/08/09 03:06:07;;;;;;;6.17;3.73;;;16.20;1.00;;;;;;5009826;28;20220;-73
2023/08/09 03:08:32;;;;;;;6.97;4.20;;;16.10;1.00;;;;;;5008464;28;20207;-74
2023/08/09 03:10:58;;;;;;;5.97;3.93;;;16.10;1.00;;;;;;5009982;28;20475;-74
2023/08/09 03:13:23;;;;;;;8.53;4.00;;;16.10;1.00;;;;;;5010575;28;20170;-74
2023/08/09 03:15:49;;;;;;;4.33;3.93;;;16.10;1.00;;;;;;5009900;28;20167;-73
2023/08/09 03:18:14;;;;;;;9.20;4.70;;;16.10;1.00;;;;;;5010137;28;20241;-73
2023/08/09 03:20:40;;;;;;;5.17;4.10;;;16.20;1.00;;;;;;5008288;28;20216;-73
2023/08/09 03:23:08;;;;;;;5.23;3.90;;;16.20;1.00;;;;;;5010134;28;20616;-73
2023/08/09 03:25:35;;;;;;;7.63;4.30;;;16.30;1.00;;;;;;5009757;28;20192;-74
2023/08/09 03:28:00;;;;;;;7.77;4.03;;;16.20;1.00;;;;;;5010200;28;20492;-73
2023/08/09 03:30:26;;;;;;;7.47;3.97;;;16.10;1.00;;;;;;5010159;28;20448;-73
2023/08/09 03:32:51;;;;;;;7.40;4.13;;;16.10;1.00;;;;;;5008669;28;20190;-74
2023/08/09 03:35:17;;;;;;;6.70;4.00;;;16.10;1.00;;;;;;5009954;28;20167;-74
2023/08/09 03:37:42;;;;;;;5.93;3.40;;;16.00;1.00;;;;;;5010289;28;20174;-74
2023/08/09 03:40:12;;;;;;;7.00;4.20;;;16.00;1.00;;;;;;5013927;28;20175;-73
2023/08/09 03:42:39;;;;;;;6.07;4.20;;;16.00;1.00;;;;;;5012153;28;20204;-74
2023/08/09 03:45:06;;;;;;;7.60;3.57;;;16.00;1.00;;;;;;5012716;28;20918;-73
2023/08/09 03:47:32;;;;;;;8.60;3.90;;;16.00;1.00;;;;;;5013405;28;20978;-73
2023/08/09 03:49:57;;;;;;;5.47;3.83;;;16.00;1.00;;;;;;5012212;28;20429;-74
2023/08/09 03:52:23;;;;;;;3.93;3.53;;;16.00;1.00;;;;;;5011784;28;20688;-73
2023/08/09 03:54:52;;;;;;;4.67;3.57;;;16.00;1.00;;;;;;5013570;28;20186;-74
2023/08/09 03:57:18;;;;;;;5.57;4.10;;;16.00;1.00;;;;;;5013701;28;20170;-73
2023/08/09 03:59:44;;;;;;;7.70;3.30;;;16.00;1.00;;;;;;5012018;28;20832;-74
2023/08/09 04:02:09;;;;;;;5.70;3.53;;;16.00;1.00;;;;;;5013268;28;20437;-74
2023/08/09 04:04:35;;;;;;;7.70;3.30;;;16.00;1.00;;;;;;5011900;28;20444;-73
2023/08/09 04:07:00;;;;;;;6.90;3.50;;;15.90;1.00;;;;;;5012908;28;20209;-73
2023/08/09 04:09:26;;;;;;;4.53;3.20;;;15.90;1.00;;;;;;5013117;28;20167;-74
2023/08/09 04:11:52;;;;;;;6.20;3.30;;;15.90;1.00;;;;;;5012975;28;20210;-74
2023/08/09 04:14:19;;;;;;;6.50;3.70;;;15.90;1.00;;;;;;5013531;28;20170;-74
2023/08/09 04:16:44;;;;;;;6.33;3.17;;;15.90;1.00;;;;;;5012800;28;20178;-73
2023/08/09 04:19:10;;;;;;;5.07;3.50;;;15.90;1.00;;;;;;5011296;28;20491;-73
2023/08/09 04:21:35;;;;;;;5.60;3.00;;;15.90;1.00;;;;;;5012581;28;20203;-74
2023/08/09 04:24:01;;;;;;;4.83;3.10;;;15.90;1.00;;;;;;5012909;28;20660;-74
2023/08/09 04:26:27;;;;;;;3.40;2.67;;;15.90;1.00;;;;;;5012812;28;20166;-74
2023/08/09 04:28:52;;;;;;;3.73;2.97;;;15.90;1.00;;;;;;5012364;28;20206;-73
2023/08/09 04:31:18;;;;;;;3.57;3.23;;;16.00;1.00;;;;;;5012801;28;20207;-73
2023/08/09 04:33:49;;;;;;;4.77;3.03;;;16.10;1.00;;;;;;5012327;28;20179;-73
2023/08/09 04:36:18;;;;;;;4.30;3.37;;;16.10;1.00;;;;;;5006272;28;20186;-73
2023/08/09 04:38:43;;;;;;;6.30;3.10;;;16.20;1.00;;;;;;5010378;28;20424;-74
2023/08/09 04:41:12;;;;;;;3.43;2.93;;;16.30;1.00;;;;;;5012658;28;20429;-73
2023/08/09 04:43:46;;;;;;;3.23;2.60;;;16.30;1.00;;;;;;5010983;28;20723;-74
2023/08/09 04:46:12;;;;;;;4.20;2.80;;;16.40;1.00;;;;;;5012342;28;20417;-73
2023/08/09 04:48:39;;;;;;;4.33;2.97;;;16.40;1.00;;;;;;5010648;28;20967;-73
2023/08/09 04:51:05;;;;;;;4.63;3.10;;;16.40;1.00;;;;;;5010611;28;20508;-74
2023/08/09 04:53:31;;;;;;;6.30;3.47;;;16.40;1.00;;;;;;5012552;28;20938;-74
2023/08/09 04:55:56;;;;;;;7.53;3.80;;;16.30;1.00;;;;;;5012123;28;20549;-74
2023/08/09 04:58:22;;;;;;;3.80;2.80;;;16.30;1.00;;;;;;5010681;28;20174;-74
2023/08/09 05:00:48;;;;;;;7.30;3.63;;;16.50;1.00;;;;;;5011446;28;20556;-74
2023/08/09 05:03:13;;;;;;;5.43;3.57;;;16.90;1.00;;;;;;5012504;28;20182;-74
2023/08/09 05:05:39;;;;;;;6.03;3.30;;;16.40;1.00;;;;;;5010411;28;20250;-74
2023/08/09 05:08:04;;;;;;;4.40;2.67;;;16.50;1.00;;;;;;5011559;28;20564;-74
2023/08/09 05:10:30;;;;;;;4.93;3.00;;;16.50;1.00;;;;;;5011905;28;20182;-73
2023/08/09 05:12:56;;;;;;;6.97;3.40;;;16.40;1.00;;;;;;5011790;28;20291;-74
2023/08/09 05:15:21;;;;;;;4.10;3.03;;;16.50;1.00;;;;;;5011978;28;20179;-74
2023/08/09 05:17:47;;;;;;;7.83;3.47;;;16.60;1.00;;;;;;5011511;28;20194;-74
2023/08/09 05:20:12;;;;;;;3.30;3.00;;;16.60;1.00;;;;;;5012179;28;20174;-74
2023/08/09 05:22:38;;;;;;;5.30;2.97;;;16.70;1.00;;;;;;5010032;28;20198;-74
2023/08/09 05:25:04;;;;;;;3.57;3.27;;;16.70;1.00;;;;;;5010732;28;20178;-74
2023/08/09 05:27:29;;;;;;;3.30;2.70;;;16.80;1.00;;;;;;5011708;28;20191;-74
2023/08/09 05:29:55;;;;;;;4.53;3.00;;;16.80;1.00;;;;;;5011262;28;20501;-74
2023/08/09 05:32:21;;;;;;;5.40;2.97;;;16.90;1.00;;;;;;5010009;28;20190;-74
2023/08/09 05:34:47;;;;;;;5.00;3.43;;;16.90;1.00;;;;;;5011421;28;20261;-74
2023/08/09 05:37:12;;;;;;;4.57;2.97;;;16.90;1.00;;;;;;5009758;28;20264;-74
2023/08/09 05:39:38;;;;;;;3.70;3.03;;;16.90;1.00;;;;;;5010075;28;20178;-74
2023/08/09 05:42:04;;;;;;;7.90;3.70;;;16.90;1.00;;;;;;5011453;28;20201;-74
2023/08/09 05:44:29;;;;;;;5.57;3.70;;;17.00;1.00;;;;;;5010136;28;20265;-74
2023/08/09 05:46:55;;;;;;;3.50;3.00;;;16.90;1.00;;;;;;5009627;28;20204;-74
2023/08/09 05:49:20;;;;;;;5.43;3.07;;;16.80;1.00;;;;;;5010021;28;20170;-74
2023/08/09 05:51:46;;;;;;;6.43;3.20;;;16.70;1.00;;;;;;5006471;28;20699;-74
2023/08/09 05:54:11;;;;;;;4.77;3.00;;;16.60;1.00;;;;;;5009990;28;20209;-74
2023/08/09 05:56:37;;;;;;;4.23;2.80;;;16.60;1.00;;;;;;5011448;28;20167;-74
2023/08/09 05:59:04;;;;;;;3.90;2.80;;;16.60;1.00;;;;;;5010692;28;20175;-74
2023/08/09 06:01:29;;;;;;;5.53;3.10;;;16.60;1.00;;;;;;5010909;28;20448;-75
2023/08/09 06:03:55;;;;;;;6.47;3.40;;;16.70;1.00;;;;;;5009468;28;20815;-74
2023/08/09 06:06:22;;;;;;;6.70;3.77;;;16.70;1.00;;;;;;5006316;28;20257;-74
2023/08/09 06:08:48;;;;;;;4.90;3.30;;;16.80;1.00;;;;;;5008211;28;20201;-74
2023/08/09 06:11:14;;;;;;;5.37;3.60;;;16.90;1.00;;;;;;5010785;28;20449;-74
2023/08/09 06:13:39;;;;;;;4.50;3.30;;;17.00;1.00;;;;;;5010934;28;20216;-74
2023/08/09 06:16:05;;;;;;;8.07;3.03;;;17.00;1.00;;;;;;5010430;28;20190;-74
2023/08/09 06:18:30;;;;;;;9.00;3.70;;;17.10;1.00;;;;;;5009322;28;20178;-74
2023/08/09 06:20:56;;;;;;;7.60;3.93;;;17.20;1.00;;;;;;5010293;28;20320;-74
2023/08/09 06:23:21;;;;;;;6.73;3.70;;;17.20;1.00;;;;;;5009395;28;20175;-74
2023/08/09 06:25:49;;;;;;;5.57;3.77;;;17.30;1.00;;;;;;5010370;28;20182;-74
2023/08/09 06:28:16;;;;;;;6.60;3.57;;;17.30;1.00;;;;;;5010506;28;20190;-74
2023/08/09 06:30:41;;;;;;;7.97;3.97;;;17.50;1.00;;;;;;5010825;28;20424;-74
2023/08/09 06:33:07;;;;;;;6.47;4.17;;;17.50;1.00;;;;;;5009282;28;20410;-74
2023/08/09 06:35:33;;;;;;;6.97;4.37;;;17.50;1.00;;;;;;5010594;28;20702;-74
2023/08/09 06:37:58;;;;;;;5.00;4.00;;;17.50;1.00;;;;;;5010012;28;20424;-73
2023/08/09 06:40:24;;;;;;;6.17;4.30;;;17.40;1.00;;;;;;5010406;28;20209;-73
2023/08/09 06:42:50;;;;;;;5.10;4.40;;;17.40;1.00;;;;;;5010078;28;20201;-73
2023/08/09 06:45:15;;;;;;;5.77;4.23;;;17.50;1.00;;;;;;5010512;28;20178;-73
2023/08/09 06:47:41;;;;;;;7.33;4.30;;;17.40;1.00;;;;;;5008910;28;20213;-74
2023/08/09 06:50:07;;;;;;;6.70;4.30;;;17.50;1.00;;;;;;5008898;28;20206;-73
2023/08/09 06:52:36;;;;;;;7.60;4.67;;;17.60;1.00;;;;;;5010262;28;20208;-73
2023/08/09 06:55:07;;;;;;;5.57;4.40;;;17.60;1.00;;;;;;5008900;28;20534;-73
2023/08/09 06:57:34;;;;;;;6.90;3.90;;;17.60;1.00;;;;;;5009857;28;20994;-74
2023/08/09 07:00:00;;;;;;;5.17;4.03;;;17.70;1.00;;;;;;5009934;28;20421;-74
2023/08/09 07:02:26;;;;;;;5.67;3.80;;;17.70;1.00;;;;;;5010120;28;20436;-74
2023/08/09 07:04:54;;;;;;;10.03;4.40;;;17.70;1.00;;;;;;5008809;28;20178;-74
2023/08/09 07:07:21;;;;;;;6.87;4.03;;;17.80;1.00;;;;;;5008429;28;20449;-74
2023/08/09 07:09:46;;;;;;;6.80;3.90;;;17.80;1.00;;;;;;5009777;28;20414;-72
2023/08/09 07:12:12;;;;;;;7.80;3.70;;;17.70;1.00;;;;;;5009055;28;20974;-74
2023/08/09 07:14:37;;;;;;;9.00;4.03;;;17.70;1.00;;;;;;5010249;28;20174;-73
2023/08/09 07:17:03;;;;;;;6.20;3.70;;;17.80;1.00;;;;;;5009899;28;20596;-73
2023/08/09 07:19:29;;;;;;;6.03;3.50;;;17.80;1.00;;;;;;5008715;28;20174;-73
2023/08/09 07:21:55;;;;;;;5.87;3.73;;;17.70;1.00;;;;;;5009535;28;20437;-73
2023/08/09 07:24:20;;;;;;;7.97;4.17;;;17.70;1.00;;;;;;5010003;28;20170;-73
2023/08/09 07:26:46;;;;;;;9.33;3.97;;;17.70;1.00;;;;;;5009583;28;20529;-74
2023/08/09 07:29:12;;;;;;;7.33;3.87;;;17.70;1.00;;;;;;5009540;28;20167;-74
2023/08/09 07:31:37;;;;;;;8.47;3.50;;;17.70;1.00;;;;;;5008600;28;20202;-74
2023/08/09 07:34:03;;;;;;;6.50;3.90;;;17.70;1.00;;;;;;5009565;28;20409;-74
2023/08/09 07:36:29;;;;;;;6.57;4.10;;;17.70;1.00;;;;;;5009784;28;20190;-74
2023/08/09 07:38:55;;;;;;;6.40;3.80;;;17.60;1.00;;;;;;5008215;28;20186;-73
2023/08/09 07:41:20;;;;;;;8.30;4.43;;;17.60;1.00;;;;;;5009637;28;20310;-74
2023/08/09 07:43:48;;;;;;;5.47;3.47;;;17.70;1.00;;;;;;5009515;28;20691;-74
2023/08/09 07:46:13;;;;;;;5.37;3.60;;;17.70;1.00;;;;;;5004296;28;20175;-74
2023/08/09 07:48:39;;;;;;;6.53;3.83;;;17.70;1.00;;;;;;5009668;28;20553;-74
2023/08/09 07:51:06;;;;;;;5.03;3.70;;;17.70;1.00;;;;;;5009649;28;20245;-74
2023/08/09 07:53:31;;;;;;;5.90;3.63;;;17.70;1.00;;;;;;5009795;28;20514;-74
2023/08/09 07:55:57;;;;;;;9.03;3.83;;;17.80;1.00;;;;;;5008071;28;20823;-74
2023/08/09 07:58:23;;;;;;;5.60;4.00;;;18.00;1.00;;;;;;5008372;28;20202;-74
2023/08/09 08:00:49;;;;;;;9.47;3.97;;;18.30;1.00;;;;;;5009648;28;20182;-74
2023/08/09 08:03:14;;;;;;;5.63;3.90;;;18.30;1.00;;;;;;5009472;28;20182;-74
2023/08/09 08:05:40;;;;;;;4.90;3.57;;;18.30;1.00;;;;;;5009154;28;20461;-74
2023/08/09 08:08:06;;;;;;;10.80;3.77;;;18.50;1.00;;;;;;5008247;28;20190;-75
2023/08/09 08:10:32;;;;;;;5.63;3.80;;;18.50;1.00;;;;;;5009434;28;20183;-74
2023/08/09 08:12:57;;;;;;;7.27;3.63;;;18.70;1.00;;;;;;5009412;28;20191;-74
2023/08/09 08:15:23;;;;;;;5.90;3.80;;;18.80;1.00;;;;;;5009688;28;20420;-75
2023/08/09 08:17:51;;;;;;;4.67;3.77;;;19.00;1.00;;;;;;5008395;28;20179;-74
2023/08/09 08:20:19;;;;;;;8.07;3.80;;;19.20;1.00;;;;;;5008418;28;20177;-74
2023/08/09 08:22:47;;;;;;;7.60;3.20;;;19.20;1.00;;;;;;5008498;28;20442;-74
2023/08/09 08:25:13;;;;;;;6.87;3.07;;;19.20;1.00;;;;;;5012756;28;20449;-75
2023/08/09 08:27:42;;;;;;;7.53;3.80;;;19.80;1.00;;;;;;5011966;28;20468;-75
2023/08/09 08:30:08;;;;;;;6.20;3.73;;;19.70;1.00;;;;;;5011768;28;21024;-74
2023/08/09 08:32:35;;;;;;;6.33;3.23;;;19.80;1.00;;;;;;5011828;28;20521;-74
2023/08/09 08:35:02;;;;;;;4.50;3.20;;;20.00;1.00;;;;;;5011804;28;20471;-74
2023/08/09 08:37:28;;;;;;;4.77;3.40;;;20.20;1.00;;;;;;5011083;28;20428;-74
2023/08/09 08:39:54;;;;;;;6.23;3.17;;;20.20;1.00;;;;;;5013133;28;20423;-75
2023/08/09 08:42:20;;;;;;;10.57;3.10;;;20.30;1.00;;;;;;5004953;28;20583;-75
2023/08/09 08:44:45;;;;;;;9.73;3.40;;;20.40;1.00;;;;;;5013413;28;20204;-75
2023/08/09 08:47:11;;;;;;;7.40;3.23;;;20.60;1.00;;;;;;5012611;28;20202;-75
2023/08/09 08:49:43;;;;;;;9.13;3.23;;;20.80;1.00;;;;;;5012981;28;20182;-75
2023/08/09 08:52:09;;;;;;;5.90;2.83;;;21.00;1.00;;;;;;5012765;28;20197;-75
2023/08/09 08:54:36;;;;;;;7.17;3.20;;;21.00;1.00;;;;;;5011778;28;20500;-75
2023/08/09 08:57:01;;;;;;;17.80;3.70;;;21.10;1.00;;;;;;5011406;28;20420;-75
2023/08/09 08:59:27;;;;;;;4.00;2.80;;;21.20;1.00;;;;;;5011229;28;20410;-75
2023/08/09 09:01:53;;;;;;;8.30;3.37;;;21.40;1.00;;;;;;5011445;28;20198;-75
2023/08/09 09:04:19;;;;;;;7.40;3.17;;;21.60;1.00;;;;;;5011208;28;20405;-75
2023/08/09 09:06:45;;;;;;;7.03;3.17;;;22.10;1.00;;;;;;5009733;28;20174;-75
2023/08/09 09:09:15;;;;;;;5.13;2.80;;;23.00;1.00;;;;;;5010821;28;20559;-75
2023/08/09 09:11:43;;;;;;;5.13;2.63;;;23.20;1.00;;;;;;5012581;28;20642;-75
2023/08/09 09:14:14;;;;;;;6.67;2.53;;;23.30;1.00;;;;;;5012473;28;20420;-75
2023/08/09 09:16:41;;;;;;;4.57;2.70;;;23.20;1.00;;;;;;5012706;28;20520;-76
2023/08/09 09:19:08;;;;;;;4.67;2.50;;;23.00;1.00;;;;;;5012076;28;20436;-75
2023/08/09 09:21:34;;;;;;;6.03;2.70;;;22.70;1.00;;;;;;5012476;28;20531;-75
2023/08/09 09:24:07;;;;;;;4.43;2.97;;;22.30;1.00;;;;;;5012330;28;20413;-75
2023/08/09 09:26:34;;;;;;;3.83;2.30;;;22.30;1.00;;;;;;5011189;28;20436;-75
2023/08/09 09:29:00;;;;;;;6.30;2.50;;;22.10;1.00;;;;;;5012041;28;21126;-75
2023/08/09 09:31:39;;;;;;;8.07;2.37;;;21.90;1.00;;;;;;5010957;28;20520;-75
2023/08/09 09:34:09;;;;;;;4.00;2.70;;;21.80;1.00;;;;;;5012134;28;20610;-76
2023/08/09 09:36:39;;;;;;;6.60;2.67;;;21.90;1.00;;;;;;5008358;28;20460;-75
2023/08/09 09:39:09;;;;;;;4.80;3.83;;;21.80;1.00;;;;;;5010430;28;20425;-74
2023/08/09 09:41:36;;;;;;;6.17;2.87;;;21.70;1.00;;;;;;5011077;28;20495;-75
2023/08/09 09:44:03;;;;;;;4.63;2.70;;;21.70;1.00;;;;;;5008567;28;20753;-75
2023/08/09 09:46:28;;;;;;;8.73;3.00;;;21.70;1.00;;;;;;5010564;28;20507;-75
2023/08/09 09:49:03;;;;;;;7.60;3.50;;;21.90;1.00;;;;;;5011926;28;20480;-76
2023/08/09 09:51:29;;;;;;;7.60;3.20;;;21.80;1.00;;;;;;5012054;28;20998;-75
2023/08/09 09:53:54;;;;;;;6.23;3.20;;;21.80;1.00;;;;;;5010697;28;20449;-74
2023/08/09 09:56:20;;;;;;;5.60;2.97;;;21.70;1.00;;;;;;5011727;28;20240;-75
2023/08/09 09:58:47;;;;;;;5.33;3.20;;;22.00;1.00;;;;;;5011598;28;20339;-75
2023/08/09 10:01:18;;;;;;;7.70;3.20;;;22.10;1.00;;;;;;5010389;28;20260;-75
2023/08/09 10:03:44;;;;;;;5.17;3.67;;;22.50;1.00;;;;;;5010557;28;20457;-75
2023/08/09 10:06:17;;;;;;;4.23;3.40;;;22.90;1.00;;;;;;5011146;28;20423;-75
2023/08/09 10:08:44;;;;;;;4.00;3.57;;;23.40;1.00;;;;;;5011618;28;20457;-75
2023/08/09 10:11:09;;;;;;;5.10;3.33;;;23.80;1.00;;;;;;5011162;28;20475;-75
2023/08/09 10:13:39;;;;;;;4.90;3.20;;;24.20;1.00;;;;;;5011545;28;20927;-75
2023/08/09 10:16:07;;;;;;;5.57;2.87;;;24.20;1.00;;;;;;5011046;28;20219;-74
2023/08/09 10:18:41;;;;;;;5.20;2.97;;;23.70;1.00;;;;;;5010133;28;20424;-75
2023/08/09 10:21:09;;;;;;;6.20;3.30;;;23.20;1.00;;;;;;5011124;28;20440;-75
2023/08/09 10:23:35;;;;;;;6.70;3.00;;;22.90;1.00;;;;;;5011420;28;20420;-75
2023/08/09 10:26:00;;;;;;;6.20;3.00;;;22.90;1.00;;;;;;5011135;28;20528;-75
2023/08/09 10:28:47;;;;;;;4.90;2.73;;;23.70;1.00;;;;;;5010828;28;20598;-75
2023/08/09 10:31:13;;;;;;;5.17;2.77;;;24.70;1.00;;;;;;5009692;28;20221;-75
2023/08/09 10:34:07;;;;;;;7.17;2.77;;;25.30;1.00;;;;;;5009906;28;20421;-75
2023/08/09 10:36:33;;;;;;;7.13;2.90;;;25.60;1.00;;;;;;5005865;28;20432;-75
2023/08/09 10:39:08;;;;;;;3.80;2.90;;;25.40;1.00;;;;;;5009591;28;20429;-75
2023/08/09 10:41:34;;;;;;;4.00;3.10;;;24.90;1.00;;;;;;5002265;28;20472;-75
2023/08/09 10:44:03;;;;;;;6.10;3.17;;;24.90;1.00;;;;;;5011159;28;20471;-75
2023/08/09 10:46:33;;;;;;;4.70;2.97;;;25.00;1.00;;;;;;5010514;28;20395;-75
2023/08/09 10:49:00;;;;;;;4.10;2.97;;;25.20;1.00;;;;;;5010600;28;20460;-75
2023/08/09 10:51:27;;;;;;;7.90;3.10;;;25.50;1.00;;;;;;5009491;28;20444;-75
2023/08/09 10:54:00;;;;;;;4.50;3.30;;;25.60;1.00;;;;;;5009302;28;20478;-75
2023/08/09 10:56:42;;;;;;;8.80;3.10;;;25.20;1.00;;;;;;5009583;28;20487;-75
2023/08/09 10:59:21;;;;;;;4.40;2.90;;;23.90;1.00;;;;;;5010529;28;20413;-74
2023/08/09 11:01:49;;;;;;;3.97;3.00;;;23.80;1.00;;;;;;5010949;28;20490;-75
2023/08/09 11:04:18;;;;;;;5.27;2.90;;;23.60;1.00;;;;;;5010660;28;21149;-75
2023/08/09 11:06:46;;;;;;;3.50;2.50;;;23.30;1.00;;;;;;5009200;28;21015;-75
2023/08/09 11:09:26;;;;;;;4.43;2.50;;;23.40;1.00;;;;;;5010334;28;20555;-75
2023/08/09 11:11:52;;;;;;;10.57;2.60;;;23.80;1.00;;;;;;5009327;28;21065;-75
2023/08/09 11:14:20;;;;;;;4.13;2.70;;;24.60;1.00;;;;;;5009078;28;20509;-75
2023/08/09 11:16:47;;;;;;;4.17;2.63;;;25.00;1.00;;;;;;5010629;28;20182;-75
2023/08/09 11:19:21;;;;;;;4.40;2.60;;;25.90;1.00;;;;;;5010305;28;20466;-75
2023/08/09 11:21:53;;;;;;;5.80;3.03;;;26.10;1.00;;;;;;5009369;28;20724;-75
2023/08/09 11:24:20;;;;;;;5.40;2.70;;;26.00;1.00;;;;;;5010355;28;20471;-75
2023/08/09 11:26:54;;;;;;;4.60;2.40;;;25.70;1.00;;;;;;5010689;28;20421;-75
2023/08/09 11:29:21;;;;;;;3.20;2.40;;;26.20;1.00;;;;;;5010264;28;20467;-75
2023/08/09 11:31:55;;;;;;;4.10;2.27;;;27.30;1.00;;;;;;5009039;28;20443;-76
2023/08/09 11:34:23;;;;;;;4.30;2.30;;;27.30;1.00;;;;;;5009611;28;20935;-75
2023/08/09 11:36:52;;;;;;;4.20;2.60;;;27.20;1.00;;;;;;5010395;28;20413;-76
2023/08/09 11:39:19;;;;;;;3.10;2.33;;;26.80;1.00;;;;;;5008865;28;20421;-75
2023/08/09 11:41:53;;;;;;;4.53;2.57;;;26.70;1.00;;;;;;5010363;28;20463;-75
2023/08/09 11:44:39;;;;;;;3.80;2.63;;;27.50;1.00;;;;;;5008958;28;20448;-76
2023/08/09 11:47:04;;;;;;;4.40;2.27;;;29.00;1.00;;;;;;5008324;28;20236;-75
2023/08/09 11:49:32;;;;;;;3.33;2.20;;;28.60;1.00;;;;;;5010149;28;20408;-75
2023/08/09 11:52:00;;;;;;;3.13;2.10;;;27.30;1.00;;;;;;5010177;28;20320;-76
2023/08/09 11:54:26;;;;;;;4.10;2.60;;;26.50;1.00;;;;;;5010267;28;20614;-76
2023/08/09 11:56:52;;;;;;;5.20;2.87;;;25.90;1.00;;;;;;5010422;28;20935;-76
2023/08/09 11:59:20;;;;;;;3.77;2.57;;;25.30;1.00;;;;;;5011549;28;20471;-75
2023/08/09 12:01:49;;;;;;;5.20;2.60;;;25.00;1.00;;;;;;5013952;28;20193;-75
2023/08/09 12:04:17;;;;;;;4.63;2.90;;;24.70;1.00;;;;;;5012673;28;20428;-75
2023/08/09 12:06:55;;;;;;;4.33;2.40;;;24.80;1.00;;;;;;5007516;28;20426;-75
2023/08/09 12:09:40;;;;;;;4.03;2.90;;;25.90;1.00;;;;;;5013591;28;20466;-76
2023/08/09 12:12:11;;;;;;;5.33;2.83;;;27.30;1.00;;;;;;5013497;28;20452;-76
2023/08/09 12:14:38;;;;;;;4.77;2.90;;;28.50;1.00;;;;;;5013525;28;20495;-75
2023/08/09 12:17:05;;;;;;;3.53;2.80;;;28.70;1.00;;;;;;5014148;28;20424;-75
2023/08/09 12:19:31;;;;;;;3.60;2.40;;;30.30;1.00;;;;;;5012423;28;20178;-76
2023/08/09 12:21:57;;;;;;;5.28;2.65;;;32.20;1.00;;;;;;5013973;28;20189;-76
2023/08/09 12:24:23;;;;;;;8.27;2.47;;;33.90;1.00;;;;;;5012276;28;20201;-76
2023/08/09 12:26:48;;;;;;;2.85;1.80;;;35.20;1.00;;;;;;5012270;28;20200;-77
2023/08/09 12:29:14;;;;;;;4.78;2.40;;;35.20;1.00;;;;;;5013637;28;20217;-76
2023/08/09 12:31:40;;;;;;;4.82;2.90;;;34.10;1.00;;;;;;5012224;28;20244;-76
2023/08/09 12:34:08;;;;;;;3.40;2.50;;;32.20;1.00;;;;;;5014079;28;20178;-76
2023/08/09 12:36:33;;;;;;;4.40;2.30;;;31.50;1.00;;;;;;5013387;28;20236;-76
2023/08/09 12:38:59;;;;;;;3.50;2.40;;;31.20;1.00;;;;;;5013425;28;20178;-76
2023/08/09 12:41:24;;;;;;;5.53;2.97;;;30.90;1.00;;;;;;5013085;28;20202;-75
2023/08/09 12:43:50;;;;;;;4.93;2.60;;;30.00;1.00;;;;;;5013664;28;20236;-76
2023/08/09 12:46:16;;;;;;;5.10;2.40;;;29.20;1.00;;;;;;5013516;28;20188;-75
2023/08/09 12:48:42;;;;;;;3.43;2.67;;;28.60;1.00;;;;;;5011878;28;20189;-76
2023/08/09 12:51:07;;;;;;;7.50;3.10;;;28.00;1.00;;;;;;5013397;28;20186;-76
2023/08/09 12:53:33;;;;;;;4.03;2.97;;;27.50;1.00;;;;;;5011571;28;20181;-76
2023/08/09 12:55:58;;;;;;;7.20;3.07;;;27.20;1.00;;;;;;5013228;28;20261;-76
2023/08/09 12:58:24;;;;;;;4.90;3.30;;;27.70;1.00;;;;;;5012898;28;20641;-75